createdAt,value
2023-05-14T00:02:24.821Z,11.25
2023-05-14T00:04:51.433Z,11.26
2023-05-14T00:07:17.995Z,11.29
2023-05-14T00:09:44.532Z,11.20
2023-05-14T00:12:14.045Z,11.17
2023-05-14T00:14:45.116Z,11.26
2023-05-14T00:17:11.662Z,11.13
2023-05-14T00:19:41.832Z,11.18
2023-05-14T00:22:09.292Z,11.12
2023-05-14T00:24:36.596Z,11.10
2023-05-14T00:27:06.674Z,11.13
2023-05-14T00:29:36.243Z,11.03
2023-05-14T00:32:03.881Z,11.13
2023-05-14T00:34:30.488Z,11.01
2023-05-14T00:37:01.528Z,11.15
2023-05-14T00:39:30.349Z,11.07
2023-05-14T00:41:56.916Z,11.13
2023-05-14T00:44:23.723Z,11.18
2023-05-14T00:46:53.279Z,11.00
2023-05-14T00:49:22.615Z,11.03
2023-05-14T00:51:49.190Z,10.99
2023-05-14T00:54:20.081Z,11.09
2023-05-14T00:56:49.594Z,11.06
2023-05-14T00:59:16.273Z,11.08
2023-05-14T01:01:42.851Z,11.10
2023-05-14T01:04:11.570Z,11.07
2023-05-14T01:06:51.976Z,10.96
2023-05-14T01:09:21.304Z,10.91
2023-05-14T01:12:12.371Z,10.88
2023-05-14T01:14:54.477Z,10.75
2023-05-14T01:17:26.813Z,10.83
2023-05-14T01:19:56.716Z,10.82
2023-05-14T01:22:23.264Z,10.84
2023-05-14T01:24:49.789Z,10.89
2023-05-14T01:27:31.755Z,10.91
2023-05-14T01:30:40.579Z,10.95
2023-05-14T01:33:11.022Z,10.87
2023-05-14T01:35:40.149Z,10.88
2023-05-14T01:38:12.632Z,10.93
2023-05-14T01:40:39.816Z,10.83
2023-05-14T01:43:06.587Z,10.88
2023-05-14T01:45:36.096Z,10.68
2023-05-14T01:48:02.768Z,10.67
2023-05-14T01:50:31.884Z,10.58
2023-05-14T01:52:58.457Z,10.64
2023-05-14T01:55:27.629Z,10.52
2023-05-14T01:57:56.639Z,10.63
2023-05-14T02:00:26.613Z,10.70
2023-05-14T02:02:56.047Z,10.59
2023-05-14T02:05:22.892Z,10.64
2023-05-14T02:07:51.673Z,10.61
2023-05-14T02:10:20.793Z,10.51
2023-05-14T02:12:47.588Z,10.43
2023-05-14T02:15:14.119Z,10.30
2023-05-14T02:17:40.720Z,10.29
2023-05-14T02:20:07.842Z,10.34
2023-05-14T02:22:34.352Z,10.25
2023-05-14T02:25:01.084Z,10.21
2023-05-14T02:27:30.193Z,10.16
2023-05-14T02:30:00.729Z,10.19
2023-05-14T02:32:30.198Z,10.28
2023-05-14T02:35:01.358Z,10.17
2023-05-14T02:37:32.756Z,10.12
2023-05-14T02:40:01.625Z,10.13
2023-05-14T02:42:28.159Z,10.09
2023-05-14T02:44:56.909Z,9.86
2023-05-14T02:47:23.507Z,9.84
2023-05-14T02:49:50.188Z,10.00
2023-05-14T02:52:18.980Z,10.03
2023-05-14T02:54:45.544Z,9.99
2023-05-14T02:57:12.125Z,10.08
2023-05-14T02:59:38.683Z,10.09
2023-05-14T03:02:08.207Z,10.10
2023-05-14T03:04:37.805Z,9.92
2023-05-14T03:07:06.856Z,9.85
2023-05-14T03:09:38.384Z,9.83
2023-05-14T03:12:08.185Z,9.93
2023-05-14T03:14:37.304Z,9.87
2023-05-14T03:17:04.167Z,9.91
2023-05-14T03:19:30.857Z,9.88
2023-05-14T03:21:57.480Z,9.81
2023-05-14T03:24:24.029Z,9.78
2023-05-14T03:26:50.558Z,9.79
2023-05-14T03:29:19.440Z,9.76
2023-05-14T03:31:46.134Z,9.78
2023-05-14T03:34:12.856Z,9.75
2023-05-14T03:36:39.816Z,9.69
2023-05-14T03:39:09.569Z,9.63
2023-05-14T03:41:39.308Z,9.60
2023-05-14T03:44:08.895Z,9.61
2023-05-14T03:46:35.846Z,9.56
2023-05-14T03:49:02.526Z,9.47
2023-05-14T03:51:29.132Z,9.45
2023-05-14T03:54:00.872Z,9.43
2023-05-14T03:56:27.380Z,9.37
2023-05-14T03:58:53.924Z,9.37
2023-05-14T04:01:20.475Z,9.37
2023-05-14T04:03:49.587Z,9.39
2023-05-14T04:06:16.239Z,9.46
2023-05-14T04:08:42.800Z,9.42
2023-05-14T04:11:09.340Z,9.37
2023-05-14T04:13:40.668Z,9.54
2023-05-14T04:16:07.272Z,9.58
2023-05-14T04:18:41.181Z,9.43
2023-05-14T04:21:07.749Z,9.48
2023-05-14T04:23:34.415Z,9.66
2023-05-14T04:26:01.013Z,9.76
2023-05-14T04:28:27.565Z,9.92
2023-05-14T04:31:00.203Z,9.95
2023-05-14T04:33:26.806Z,9.85
2023-05-14T04:35:53.550Z,10.03
2023-05-14T04:38:20.111Z,10.08
2023-05-14T04:40:46.689Z,10.19
2023-05-14T04:43:16.685Z,10.48
2023-05-14T04:45:45.851Z,10.57
2023-05-14T04:48:12.683Z,10.72
2023-05-14T04:50:39.443Z,10.87
2023-05-14T04:53:06.017Z,11.06
2023-05-14T04:55:32.615Z,11.01
2023-05-14T04:58:03.729Z,11.22
2023-05-14T05:00:33.549Z,11.39
2023-05-14T05:03:03.448Z,11.29
2023-05-14T05:05:32.415Z,11.38
2023-05-14T05:07:58.978Z,11.21
2023-05-14T05:10:27.885Z,11.20
2023-05-14T05:12:54.417Z,11.03
2023-05-14T05:15:20.994Z,11.08
2023-05-14T05:17:47.611Z,11.01
2023-05-14T05:20:16.533Z,10.87
2023-05-14T05:22:45.509Z,10.91
2023-05-14T05:25:16.820Z,10.79
2023-05-14T05:27:43.391Z,10.89
2023-05-14T05:30:12.809Z,10.76
2023-05-14T05:32:39.496Z,10.89
2023-05-14T05:35:06.623Z,10.93
2023-05-14T05:37:33.214Z,10.74
2023-05-14T05:40:02.102Z,10.80
2023-05-14T05:42:28.729Z,10.87
2023-05-14T05:44:55.518Z,11.04
2023-05-14T05:47:24.393Z,10.99
2023-05-14T05:49:50.938Z,10.86
2023-05-14T05:52:19.740Z,10.82
2023-05-14T05:54:46.422Z,10.82
2023-05-14T05:57:13.102Z,10.92
2023-05-14T05:59:44.474Z,10.92
2023-05-14T06:02:13.502Z,11.03
2023-05-14T06:04:40.211Z,11.24
2023-05-14T06:07:06.765Z,11.51
2023-05-14T06:09:38.042Z,11.55
2023-05-14T06:12:04.993Z,11.75
2023-05-14T06:14:31.592Z,11.94
2023-05-14T06:16:58.853Z,12.12
2023-05-14T06:19:25.526Z,11.93
2023-05-14T06:21:56.612Z,11.81
2023-05-14T06:24:25.514Z,11.79
2023-05-14T06:26:54.293Z,11.97
2023-05-14T06:29:20.990Z,12.16
2023-05-14T06:31:47.651Z,12.29
2023-05-14T06:34:14.302Z,12.46
2023-05-14T06:36:43.199Z,12.44
2023-05-14T06:39:16.812Z,12.01
2023-05-14T06:41:43.386Z,11.92
2023-05-14T06:44:12.146Z,12.14
2023-05-14T06:46:43.238Z,12.05
2023-05-14T06:49:09.995Z,12.22
2023-05-14T06:51:39.107Z,12.14
2023-05-14T06:54:05.699Z,12.17
2023-05-14T06:56:34.883Z,12.24
2023-05-14T06:59:04.015Z,12.39
2023-05-14T07:01:32.871Z,12.73
2023-05-14T07:03:59.574Z,13.16
2023-05-14T07:06:26.183Z,13.26
2023-05-14T07:08:53.360Z,13.40
2023-05-14T07:11:22.394Z,13.41
2023-05-14T07:13:48.994Z,13.22
2023-05-14T07:16:18.065Z,13.59
2023-05-14T07:18:45.668Z,13.84
2023-05-14T07:21:14.500Z,13.70
2023-05-14T07:23:43.259Z,13.75
2023-05-14T07:26:09.921Z,13.67
2023-05-14T07:28:36.587Z,13.39
2023-05-14T07:31:08.785Z,13.62
2023-05-14T07:33:40.898Z,13.56
2023-05-14T07:36:10.709Z,13.72
2023-05-14T07:38:37.326Z,13.28
2023-05-14T07:41:08.490Z,13.14
2023-05-14T07:43:35.049Z,13.44
2023-05-14T07:46:04.579Z,13.51
2023-05-14T07:48:31.210Z,13.61
2023-05-14T07:51:00.202Z,13.79
2023-05-14T07:53:26.836Z,13.60
2023-05-14T07:55:55.705Z,13.21
2023-05-14T07:58:23.145Z,13.27
2023-05-14T08:00:51.958Z,13.02
2023-05-14T08:03:18.744Z,12.84
2023-05-14T08:05:45.921Z,12.99
2023-05-14T08:08:14.928Z,13.04
2023-05-14T08:10:41.581Z,13.39
2023-05-14T08:13:10.974Z,13.32
2023-05-14T08:15:37.566Z,13.45
2023-05-14T08:18:06.654Z,13.64
2023-05-14T08:20:33.249Z,13.86
2023-05-14T08:22:59.765Z,14.08
2023-05-14T08:25:28.805Z,14.03
2023-05-14T08:27:59.757Z,14.04
2023-05-14T08:30:26.666Z,13.93
2023-05-14T08:32:53.734Z,13.85
2023-05-14T08:35:20.339Z,14.11
2023-05-14T08:37:46.959Z,13.66
2023-05-14T08:40:13.724Z,13.57
2023-05-14T08:42:44.943Z,13.58
2023-05-14T08:45:28.847Z,13.76
2023-05-14T08:47:58.549Z,14.03
2023-05-14T08:50:25.679Z,13.76
2023-05-14T08:52:53.141Z,13.52
2023-05-14T08:55:20.105Z,13.54
2023-05-14T08:57:46.761Z,13.73
2023-05-14T09:00:15.573Z,14.21
2023-05-14T09:02:46.726Z,14.63
2023-05-14T09:05:14.905Z,15.17
2023-05-14T09:07:41.750Z,15.11
2023-05-14T09:10:11.537Z,15.61
2023-05-14T09:12:40.463Z,15.82
2023-05-14T09:15:07.323Z,15.06
2023-05-14T09:17:36.491Z,15.63
2023-05-14T09:20:04.104Z,15.66
2023-05-14T09:22:33.524Z,16.13
2023-05-14T09:25:13.134Z,15.19
2023-05-14T09:27:46.580Z,15.01
2023-05-14T09:30:13.820Z,15.62
2023-05-14T09:32:45.834Z,15.82
2023-05-14T09:35:18.371Z,16.06
2023-05-14T09:37:49.434Z,15.53
2023-05-14T09:40:19.564Z,15.83
2023-05-14T09:42:50.930Z,16.36
2023-05-14T09:45:20.435Z,16.60
2023-05-14T09:47:47.408Z,15.70
2023-05-14T09:50:14.166Z,15.65
2023-05-14T09:52:42.919Z,15.54
2023-05-14T09:55:09.701Z,15.34
2023-05-14T09:57:38.523Z,14.73
2023-05-14T10:00:05.843Z,14.75
2023-05-14T10:02:41.565Z,14.55
2023-05-14T10:05:09.544Z,14.33
2023-05-14T10:07:47.986Z,15.15
2023-05-14T10:10:18.465Z,15.24
2023-05-14T10:12:52.784Z,15.82
2023-05-14T10:15:41.999Z,15.86
2023-05-14T10:18:20.020Z,15.41
2023-05-14T10:21:01.084Z,15.88
2023-05-14T10:23:30.312Z,16.21
2023-05-14T10:25:58.575Z,16.99
2023-05-14T10:28:25.949Z,16.85
2023-05-14T10:30:56.589Z,16.88
2023-05-14T10:33:23.175Z,16.73
2023-05-14T10:36:02.620Z,16.23
2023-05-14T10:38:33.444Z,15.34
2023-05-14T10:41:02.465Z,15.72
2023-05-14T10:43:36.393Z,16.00
2023-05-14T10:46:03.644Z,15.40
2023-05-14T10:48:35.289Z,15.64
2023-05-14T10:51:07.501Z,15.48
2023-05-14T10:53:41.809Z,15.76
2023-05-14T10:56:14.684Z,16.03
2023-05-14T10:58:45.853Z,16.24
2023-05-14T11:01:15.563Z,16.74
2023-05-14T11:03:46.817Z,17.39
2023-05-14T11:06:15.219Z,17.71
2023-05-14T11:08:46.534Z,17.22
2023-05-14T11:11:13.268Z,16.03
2023-05-14T11:13:41.449Z,16.47
2023-05-14T11:16:21.926Z,15.96
2023-05-14T11:19:01.880Z,16.55
2023-05-14T11:21:28.878Z,16.92
2023-05-14T11:23:56.572Z,17.31
2023-05-14T11:26:24.260Z,18.27
2023-05-14T11:28:50.960Z,19.24
2023-05-14T11:31:24.633Z,18.63
2023-05-14T11:33:52.528Z,18.01
2023-05-14T11:36:19.061Z,17.94
2023-05-14T11:38:51.359Z,17.98
2023-05-14T11:41:18.125Z,17.50
2023-05-14T11:43:47.680Z,17.59
2023-05-14T11:46:20.720Z,17.79
2023-05-14T11:48:49.629Z,17.79
2023-05-14T11:51:16.251Z,17.14
2023-05-14T11:53:45.559Z,17.13
2023-05-14T11:56:14.706Z,16.88
2023-05-14T11:58:43.738Z,16.58
2023-05-14T12:01:18.106Z,16.84
2023-05-14T12:03:47.391Z,16.92
2023-05-14T12:06:19.258Z,16.69
2023-05-14T12:08:48.306Z,16.45
2023-05-14T12:11:14.936Z,16.28
2023-05-14T12:13:42.017Z,16.69
2023-05-14T12:16:09.061Z,16.67
2023-05-14T12:18:35.923Z,16.69
2023-05-14T12:21:08.698Z,16.35
2023-05-14T12:23:35.558Z,16.45
2023-05-14T12:26:11.764Z,17.14
2023-05-14T12:28:43.234Z,17.11
2023-05-14T12:31:12.529Z,17.31
2023-05-14T12:33:39.085Z,16.63
2023-05-14T12:36:21.275Z,17.05
2023-05-14T12:38:52.850Z,17.24
2023-05-14T12:41:21.775Z,17.65
2023-05-14T12:43:51.219Z,17.67
2023-05-14T12:46:17.938Z,18.13
2023-05-14T12:48:44.493Z,18.38
2023-05-14T12:51:11.001Z,18.42
2023-05-14T12:53:39.709Z,18.01
2023-05-14T12:56:08.880Z,18.20
2023-05-14T12:58:35.712Z,17.57
2023-05-14T13:01:04.915Z,16.96
2023-05-14T13:03:34.329Z,16.68
2023-05-14T13:06:01.432Z,17.29
2023-05-14T13:08:30.133Z,17.88
2023-05-14T13:10:56.906Z,18.02
2023-05-14T13:13:26.317Z,18.46
2023-05-14T13:15:53.395Z,18.46
2023-05-14T13:18:20.026Z,18.15
2023-05-14T13:20:47.592Z,18.42
2023-05-14T13:23:14.631Z,18.43
2023-05-14T13:25:41.432Z,18.76
2023-05-14T13:28:08.799Z,19.26
2023-05-14T13:30:38.054Z,18.30
2023-05-14T13:33:08.963Z,18.27
2023-05-14T13:35:38.057Z,18.01
2023-05-14T13:38:04.652Z,17.87
2023-05-14T13:40:33.489Z,16.98
2023-05-14T13:43:03.127Z,17.60
2023-05-14T13:45:29.716Z,17.73
2023-05-14T13:47:56.808Z,18.53
2023-05-14T13:50:23.406Z,19.15
2023-05-14T13:52:50.009Z,19.60
2023-05-14T13:55:18.793Z,19.71
2023-05-14T13:57:45.359Z,19.50
2023-05-14T14:00:13.444Z,19.27
2023-05-14T14:02:40.210Z,19.11
2023-05-14T14:05:07.285Z,18.50
2023-05-14T14:07:33.881Z,18.40
2023-05-14T14:10:01.754Z,17.70
2023-05-14T14:12:28.469Z,17.43
2023-05-14T14:14:55.129Z,16.90
2023-05-14T14:17:21.740Z,16.47
2023-05-14T14:19:50.771Z,16.80
2023-05-14T14:22:19.630Z,16.29
2023-05-14T14:24:46.389Z,16.28
2023-05-14T14:27:13.082Z,16.27
2023-05-14T14:29:39.690Z,16.22
2023-05-14T14:32:09.073Z,16.47
2023-05-14T14:34:38.931Z,16.35
2023-05-14T14:37:05.552Z,15.65
2023-05-14T14:39:34.755Z,16.18
2023-05-14T14:42:03.604Z,15.82
2023-05-14T14:44:30.233Z,16.13
2023-05-14T14:46:56.811Z,16.46
2023-05-14T14:49:23.572Z,16.41
2023-05-14T14:51:52.375Z,16.61
2023-05-14T14:54:18.962Z,16.35
2023-05-14T14:56:52.508Z,16.67
2023-05-14T14:59:19.116Z,16.77
2023-05-14T15:01:45.826Z,16.93
2023-05-14T15:04:15.010Z,17.34
2023-05-14T15:06:41.550Z,17.28
2023-05-14T15:09:08.114Z,17.86
2023-05-14T15:11:37.572Z,17.66
2023-05-14T15:14:04.414Z,17.40
2023-05-14T15:16:31.052Z,17.24
2023-05-14T15:19:00.265Z,17.01
2023-05-14T15:21:27.036Z,17.14
2023-05-14T15:23:53.554Z,17.29
2023-05-14T15:26:20.087Z,17.15
2023-05-14T15:28:46.662Z,16.85
2023-05-14T15:31:15.784Z,17.41
2023-05-14T15:33:42.559Z,17.40
2023-05-14T15:36:11.487Z,17.54
2023-05-14T15:38:38.286Z,17.68
2023-05-14T15:41:05.361Z,17.57
2023-05-14T15:43:31.894Z,16.61
2023-05-14T15:45:58.456Z,17.11
2023-05-14T15:48:25.069Z,16.94
2023-05-14T15:50:54.207Z,16.84
2023-05-14T15:53:20.906Z,17.12
2023-05-14T15:55:50.814Z,17.29
2023-05-14T15:58:17.518Z,17.15
2023-05-14T16:00:48.590Z,16.69
2023-05-14T16:03:15.363Z,16.50
2023-05-14T16:05:45.052Z,16.89
2023-05-14T16:08:11.654Z,16.75
2023-05-14T16:10:38.641Z,17.15
2023-05-14T16:13:05.305Z,17.57
2023-05-14T16:15:32.014Z,16.92
2023-05-14T16:17:59.794Z,16.87
2023-05-14T16:20:26.491Z,17.33
2023-05-14T16:22:53.140Z,18.11
2023-05-14T16:25:24.594Z,17.74
2023-05-14T16:27:51.289Z,17.53
2023-05-14T16:30:22.655Z,17.28
2023-05-14T16:32:49.704Z,17.20
2023-05-14T16:35:16.850Z,17.08
2023-05-14T16:37:43.726Z,17.17
2023-05-14T16:40:11.830Z,16.86
2023-05-14T16:42:38.742Z,16.88
2023-05-14T16:45:08.022Z,16.32
2023-05-14T16:47:34.589Z,16.14
2023-05-14T16:50:01.182Z,15.99
2023-05-14T16:52:30.091Z,15.93
2023-05-14T16:54:56.717Z,15.90
2023-05-14T16:57:23.472Z,15.65
2023-05-14T16:59:52.232Z,15.72
2023-05-14T17:02:24.625Z,15.60
2023-05-14T17:04:51.292Z,15.63
2023-05-14T17:07:20.724Z,15.33
2023-05-14T17:09:47.309Z,15.34
2023-05-14T17:12:14.004Z,14.98
2023-05-14T17:14:42.649Z,14.80
2023-05-14T17:17:09.390Z,14.62
2023-05-14T17:19:38.280Z,14.48
2023-05-14T17:22:07.353Z,14.63
2023-05-14T17:24:35.486Z,14.25
2023-05-14T17:27:02.130Z,14.16
2023-05-14T17:29:31.840Z,14.24
2023-05-14T17:31:58.496Z,14.29
2023-05-14T17:34:27.555Z,14.11
2023-05-14T17:36:54.144Z,13.75
2023-05-14T17:39:20.730Z,13.88
2023-05-14T17:41:49.321Z,13.60
2023-05-14T17:44:18.166Z,13.57
2023-05-14T17:46:45.792Z,13.50
2023-05-14T17:49:12.366Z,13.77
2023-05-14T17:51:41.936Z,13.74
2023-05-14T17:54:10.889Z,13.63
2023-05-14T17:56:40.017Z,13.18
2023-05-14T17:59:07.074Z,13.11
2023-05-14T18:01:33.801Z,13.26
2023-05-14T18:04:00.534Z,13.05
2023-05-14T18:06:29.694Z,12.50
2023-05-14T18:08:58.477Z,12.31
2023-05-14T18:11:25.109Z,12.62
2023-05-14T18:13:51.680Z,12.84
2023-05-14T18:16:18.285Z,13.00
2023-05-14T18:18:44.977Z,12.96
2023-05-14T18:21:11.544Z,12.86
2023-05-14T18:23:41.177Z,13.03
2023-05-14T18:26:07.849Z,12.93
2023-05-14T18:28:37.100Z,12.91
2023-05-14T18:31:08.782Z,12.84
2023-05-14T18:33:35.601Z,12.74
2023-05-14T18:36:02.321Z,12.69
2023-05-14T18:38:34.175Z,12.77
2023-05-14T18:41:05.692Z,12.66
2023-05-14T18:43:34.488Z,12.74
2023-05-14T18:46:01.108Z,12.44
2023-05-14T18:48:27.912Z,12.34
2023-05-14T18:50:56.888Z,12.22
2023-05-14T18:53:29.316Z,12.12
2023-05-14T18:56:02.411Z,11.98
2023-05-14T18:58:31.418Z,11.97
2023-05-14T19:00:59.070Z,11.81
2023-05-14T19:03:27.955Z,11.88
2023-05-14T19:05:54.850Z,11.86
2023-05-14T19:08:21.415Z,11.64
2023-05-14T19:10:48.560Z,11.68
2023-05-14T19:13:17.569Z,11.69
2023-05-14T19:15:46.424Z,11.57
2023-05-14T19:18:15.371Z,11.67
2023-05-14T19:20:42.507Z,11.65
2023-05-14T19:23:13.835Z,11.65
2023-05-14T19:25:40.487Z,11.49
2023-05-14T19:28:09.242Z,11.41
2023-05-14T19:30:35.826Z,11.25
2023-05-14T19:33:02.419Z,11.11
2023-05-14T19:35:29.005Z,11.18
2023-05-14T19:37:55.546Z,11.12
2023-05-14T19:40:22.103Z,11.11
2023-05-14T19:42:48.735Z,11.14
2023-05-14T19:45:17.733Z,11.04
2023-05-14T19:47:46.725Z,10.98
2023-05-14T19:50:18.051Z,11.06
2023-05-14T19:52:44.608Z,11.05
2023-05-14T19:55:13.623Z,11.06
2023-05-14T19:57:40.251Z,11.06
2023-05-14T20:00:10.532Z,11.06
2023-05-14T20:02:41.019Z,11.01
2023-05-14T20:05:12.827Z,11.05
2023-05-14T20:07:42.597Z,11.05
2023-05-14T20:10:12.887Z,11.04
2023-05-14T20:12:39.412Z,10.68
2023-05-14T20:15:06.258Z,10.81
2023-05-14T20:17:34.883Z,11.02
2023-05-14T20:20:01.649Z,11.11
2023-05-14T20:22:28.196Z,11.03
2023-05-14T20:24:54.856Z,11.12
2023-05-14T20:27:21.833Z,11.18
2023-05-14T20:29:51.368Z,11.22
2023-05-14T20:32:18.075Z,11.26
2023-05-14T20:34:47.121Z,11.36
2023-05-14T20:37:15.901Z,11.37
2023-05-14T20:39:42.486Z,11.42
2023-05-14T20:42:11.654Z,11.40
2023-05-14T20:44:38.248Z,11.44
2023-05-14T20:47:09.631Z,11.47
2023-05-14T20:49:36.193Z,11.46
2023-05-14T20:52:02.803Z,11.44
2023-05-14T20:54:29.317Z,11.47
2023-05-14T20:56:55.902Z,11.52
2023-05-14T20:59:27.329Z,11.51
2023-05-14T21:01:53.898Z,11.44
2023-05-14T21:04:20.688Z,11.45
2023-05-14T21:06:47.500Z,11.51
2023-05-14T21:09:16.353Z,11.56
2023-05-14T21:11:42.940Z,11.57
2023-05-14T21:14:12.503Z,11.55
2023-05-14T21:16:44.043Z,11.56
2023-05-14T21:19:15.240Z,11.55
2023-05-14T21:21:42.149Z,11.51
2023-05-14T21:24:13.447Z,11.53
2023-05-14T21:26:41.417Z,11.50
2023-05-14T21:29:07.996Z,11.48
2023-05-14T21:31:36.764Z,11.47
2023-05-14T21:34:03.289Z,11.37
2023-05-14T21:36:29.855Z,11.31
2023-05-14T21:38:58.945Z,11.31
2023-05-14T21:41:27.860Z,11.28
2023-05-14T21:43:54.450Z,11.17
2023-05-14T21:46:21.185Z,11.19
2023-05-14T21:48:47.866Z,11.15
2023-05-14T21:51:16.747Z,11.07
2023-05-14T21:53:43.331Z,10.98
2023-05-14T21:56:10.055Z,10.90
2023-05-14T21:58:39.595Z,10.88
2023-05-14T22:01:06.188Z,10.86
2023-05-14T22:03:32.804Z,10.84
2023-05-14T22:05:59.383Z,10.78
2023-05-14T22:08:29.613Z,10.77
2023-05-14T22:10:56.475Z,10.77
2023-05-14T22:13:25.307Z,10.74
2023-05-14T22:16:09.111Z,10.84
2023-05-14T22:18:41.626Z,10.79
2023-05-14T22:21:10.887Z,10.71
2023-05-14T22:23:37.563Z,10.69
2023-05-14T22:26:04.611Z,10.69
2023-05-14T22:28:34.162Z,10.65
2023-05-14T22:31:04.190Z,10.67
2023-05-14T22:33:33.313Z,10.67
2023-05-14T22:35:59.846Z,10.65
2023-05-14T22:38:26.408Z,10.71
2023-05-14T22:40:53.012Z,10.72
2023-05-14T22:43:19.579Z,10.70
2023-05-14T22:45:48.469Z,10.69
2023-05-14T22:48:20.297Z,10.53
2023-05-14T22:50:46.819Z,10.53
2023-05-14T22:53:15.790Z,10.43
2023-05-14T22:55:42.351Z,10.44
2023-05-14T22:58:13.647Z,10.48
2023-05-14T23:00:42.578Z,10.40
2023-05-14T23:03:09.165Z,10.33
2023-05-14T23:05:35.950Z,10.27
2023-05-14T23:08:02.629Z,10.26
2023-05-14T23:10:29.638Z,10.25
2023-05-14T23:12:56.206Z,10.16
2023-05-14T23:15:25.219Z,10.21
2023-05-14T23:17:52.007Z,10.17
2023-05-14T23:20:20.810Z,10.21
2023-05-14T23:22:52.426Z,10.20
2023-05-14T23:25:18.907Z,10.28
2023-05-14T23:27:48.026Z,10.31
2023-05-14T23:30:14.591Z,10.30
2023-05-14T23:32:41.140Z,10.30
2023-05-14T23:35:10.152Z,10.28
2023-05-14T23:37:47.183Z,10.17
2023-05-14T23:40:14.217Z,10.19
2023-05-14T23:42:43.922Z,10.30
2023-05-14T23:45:13.679Z,10.32
2023-05-14T23:47:42.654Z,10.36
2023-05-14T23:50:09.479Z,10.33
2023-05-14T23:52:36.042Z,10.36
2023-05-14T23:55:02.637Z,10.37
2023-05-14T23:57:31.905Z,10.37
